Time;durP1;ratioP1;P1;durP2;ratioP2;P2;SDS_P1;SDS_P2;PMS_P1;PMS_P2;Temp;Humidity;BMP_temperature;BMP_pressure;BME280_temperature;BME280_humidity;BME280_pressure;Samples;Min_cycle;Max_cycle;Signal;HPM_P1;HPM_P2
2021/04/25 00:01:39;;;;;;;1.08;1.00;;;16.80;71.70;;;;;;5068552;28;20024;-70
2021/04/25 00:04:09;;;;;;;1.67;1.00;;;16.90;71.50;;;;;;5068477;28;20142;-69
2021/04/25 00:06:36;;;;;;;2.65;1.23;;;17.00;71.90;;;;;;5067888;28;20399;-69
2021/04/25 00:09:03;;;;;;;1.27;1.13;;;17.00;71.30;;;;;;5067539;28;20029;-70
2021/04/25 00:11:28;;;;;;;1.70;1.23;;;17.10;71.60;;;;;;5068115;28;20032;-68
2021/04/25 00:13:54;;;;;;;1.35;1.08;;;17.00;71.30;;;;;;5068245;28;20090;-69
2021/04/25 00:16:22;;;;;;;1.15;1.05;;;17.10;71.30;;;;;;5067987;28;20519;-69
2021/04/25 00:18:48;;;;;;;1.65;1.00;;;17.30;70.80;;;;;;5068170;28;20456;-71
2021/04/25 00:21:17;;;;;;;0.80;0.80;;;17.50;70.30;;;;;;5068511;28;20032;-70
2021/04/25 00:23:43;;;;;;;0.98;0.98;;;17.50;70.40;;;;;;5067800;28;20067;-70
2021/04/25 00:26:08;;;;;;;1.00;0.90;;;17.60;69.90;;;;;;5068089;28;20056;-70
2021/04/25 00:28:34;;;;;;;1.10;1.00;;;17.60;70.10;;;;;;5067633;28;20063;-70
2021/04/25 00:31:00;;;;;;;1.75;1.30;;;17.50;69.80;;;;;;5067808;28;20056;-70
2021/04/25 00:33:25;;;;;;;1.23;1.00;;;17.60;70.50;;;;;;5067406;28;20103;-69
2021/04/25 00:35:51;;;;;;;1.98;1.00;;;17.50;70.40;;;;;;5065467;28;20028;-69
2021/04/25 00:38:17;;;;;;;1.00;0.90;;;17.40;71.30;;;;;;5068058;28;20044;-69
2021/04/25 00:40:43;;;;;;;1.40;1.00;;;16.90;71.50;;;;;;5067612;28;20025;-69
2021/04/25 00:43:08;;;;;;;1.63;1.20;;;17.20;71.10;;;;;;5067835;28;20114;-69
2021/04/25 00:45:34;;;;;;;1.67;1.05;;;17.40;71.20;;;;;;5067471;28;20024;-69
2021/04/25 00:48:00;;;;;;;1.20;1.00;;;17.20;71.20;;;;;;5067069;28;20494;-69
2021/04/25 00:50:26;;;;;;;1.15;0.93;;;17.00;71.60;;;;;;5066458;28;20077;-70
2021/04/25 00:52:55;;;;;;;1.80;1.00;;;17.00;71.80;;;;;;5067260;28;20024;-69
2021/04/25 00:55:24;;;;;;;2.35;1.02;;;16.90;73.00;;;;;;5067276;28;20528;-68
2021/04/25 00:57:51;;;;;;;1.23;1.08;;;17.00;71.80;;;;;;5066432;28;20051;-69
2021/04/25 01:00:17;;;;;;;1.13;1.02;;;16.90;72.10;;;;;;5067917;28;20103;-69
2021/04/25 01:02:43;;;;;;;0.93;0.90;;;16.90;71.90;;;;;;5066703;28;20040;-69
2021/04/25 01:05:12;;;;;;;1.00;0.90;;;16.90;72.30;;;;;;5067105;28;20106;-69
2021/04/25 01:07:38;;;;;;;1.42;1.30;;;17.10;72.80;;;;;;5066941;28;20035;-70
2021/04/25 01:10:05;;;;;;;1.92;1.08;;;16.90;71.90;;;;;;5066781;28;20394;-70
2021/04/25 01:12:31;;;;;;;1.40;0.95;;;16.70;72.20;;;;;;5066903;28;20729;-69
2021/04/25 01:14:57;;;;;;;1.80;1.10;;;17.00;72.20;;;;;;5066254;28;20028;-69
2021/04/25 01:17:23;;;;;;;1.10;0.90;;;16.60;72.30;;;;;;5065684;28;20097;-69
2021/04/25 01:19:50;;;;;;;1.30;1.20;;;16.50;73.90;;;;;;5067487;28;20040;-69
2021/04/25 01:22:15;;;;;;;1.15;0.80;;;16.80;72.90;;;;;;5067638;28;20021;-70
2021/04/25 01:24:41;;;;;;;0.93;0.90;;;16.80;72.60;;;;;;5066773;28;20031;-70
2021/04/25 01:27:07;;;;;;;1.63;1.05;;;16.60;73.30;;;;;;5066902;28;20070;-69
2021/04/25 01:29:32;;;;;;;1.23;1.02;;;16.80;73.40;;;;;;5066505;28;20040;-70
2021/04/25 01:31:58;;;;;;;1.90;1.08;;;16.50;73.60;;;;;;5066535;28;20096;-70
2021/04/25 01:34:24;;;;;;;1.70;1.10;;;16.40;73.70;;;;;;5066835;28;20491;-69
2021/04/25 01:36:51;;;;;;;1.20;1.10;;;16.40;74.10;;;;;;5067420;28;20028;-69
2021/04/25 01:39:17;;;;;;;1.60;1.13;;;16.60;74.00;;;;;;5067276;28;20021;-70
2021/04/25 01:41:43;;;;;;;1.13;0.95;;;16.50;74.00;;;;;;5066501;28;20067;-71
2021/04/25 01:44:09;;;;;;;1.83;1.60;;;16.40;74.20;;;;;;5066787;28;20478;-70
2021/04/25 01:46:34;;;;;;;2.25;1.20;;;16.50;74.30;;;;;;5066290;28;20121;-69
2021/04/25 01:49:00;;;;;;;0.95;0.90;;;16.40;74.50;;;;;;5066770;28;20231;-69
2021/04/25 01:51:26;;;;;;;2.00;1.00;;;16.60;74.40;;;;;;5066581;28;20076;-69
2021/04/25 01:53:52;;;;;;;1.63;1.27;;;16.50;74.60;;;;;;5066707;28;20070;-69
2021/04/25 01:56:18;;;;;;;0.90;0.80;;;16.40;74.40;;;;;;5067291;28;20059;-68
2021/04/25 01:58:44;;;;;;;1.35;1.02;;;16.50;74.90;;;;;;5066176;28;20414;-68
2021/04/25 02:01:09;;;;;;;1.40;1.05;;;16.30;74.30;;;;;;5066399;28;20090;-69
2021/04/25 02:03:35;;;;;;;1.30;1.20;;;16.20;75.40;;;;;;5066262;28;20032;-69
2021/04/25 02:06:01;;;;;;;1.10;1.00;;;16.30;75.40;;;;;;5066795;28;20025;-69
2021/04/25 02:08:26;;;;;;;1.10;1.05;;;16.50;75.50;;;;;;5065994;28;20411;-69
2021/04/25 02:10:53;;;;;;;1.15;0.95;;;16.50;75.70;;;;;;5066537;28;20493;-70
2021/04/25 02:13:19;;;;;;;1.25;1.05;;;16.40;75.60;;;;;;5067049;28;20126;-70
2021/04/25 02:15:45;;;;;;;1.90;1.10;;;16.50;75.60;;;;;;5066702;28;20036;-69
2021/04/25 02:18:11;;;;;;;1.33;1.15;;;16.50;75.50;;;;;;5066324;28;20025;-69
2021/04/25 02:20:39;;;;;;;1.30;1.13;;;16.50;75.70;;;;;;5066273;28;20033;-69
2021/04/25 02:23:05;;;;;;;1.35;1.23;;;16.40;76.10;;;;;;5066637;28;20041;-70
2021/04/25 02:25:31;;;;;;;1.88;1.30;;;16.30;75.90;;;;;;5066119;28;20036;-70
2021/04/25 02:27:57;;;;;;;1.20;1.08;;;16.20;76.30;;;;;;5066217;28;20033;-69
2021/04/25 02:30:26;;;;;;;1.10;1.00;;;16.30;76.20;;;;;;5068854;28;20524;-68
2021/04/25 02:32:52;;;;;;;2.05;1.08;;;16.30;76.00;;;;;;5069798;28;20017;-69
2021/04/25 02:35:19;;;;;;;1.50;1.10;;;16.30;76.50;;;;;;5070840;28;20037;-70
2021/04/25 02:37:46;;;;;;;1.20;1.10;;;16.30;76.60;;;;;;5070580;28;20036;-70
2021/04/25 02:40:14;;;;;;;1.63;1.15;;;16.20;76.90;;;;;;5069999;28;20024;-70
2021/04/25 02:42:42;;;;;;;1.75;1.33;;;16.20;77.00;;;;;;5069367;28;20024;-69
2021/04/25 02:45:15;;;;;;;2.00;1.45;;;16.00;77.30;;;;;;5069650;28;20074;-69
2021/04/25 02:47:43;;;;;;;1.50;1.38;;;16.10;77.20;;;;;;5069498;28;20124;-69
2021/04/25 02:50:09;;;;;;;2.05;1.30;;;16.10;77.30;;;;;;5069710;28;20681;-69
2021/04/25 02:52:35;;;;;;;2.50;1.38;;;16.10;77.40;;;;;;5069542;28;20036;-69
2021/04/25 02:55:00;;;;;;;1.40;1.30;;;16.10;77.70;;;;;;5069807;28;20024;-68
2021/04/25 02:57:26;;;;;;;2.15;1.40;;;16.00;77.90;;;;;;5069175;28;20710;-68
2021/04/25 02:59:52;;;;;;;1.90;1.38;;;16.00;77.80;;;;;;5069868;28;20086;-67
2021/04/25 03:02:17;;;;;;;2.00;1.60;;;16.00;78.10;;;;;;5070011;28;20028;-68
2021/04/25 03:04:43;;;;;;;1.27;1.17;;;15.90;79.20;;;;;;5069409;28;20028;-69
2021/04/25 03:07:09;;;;;;;1.33;1.20;;;15.90;78.60;;;;;;5069784;28;20051;-69
2021/04/25 03:09:34;;;;;;;2.00;1.77;;;15.80;78.80;;;;;;5068731;28;20468;-69
2021/04/25 03:12:00;;;;;;;1.20;1.10;;;15.80;79.50;;;;;;5068952;28;20044;-70
2021/04/25 03:14:26;;;;;;;1.40;1.30;;;15.70;79.50;;;;;;5069120;28;20036;-70
2021/04/25 03:16:52;;;;;;;2.85;1.50;;;15.60;79.40;;;;;;5069062;28;20031;-70
2021/04/25 03:19:19;;;;;;;1.30;1.20;;;15.60;79.50;;;;;;5069854;28;20032;-68
2021/04/25 03:21:45;;;;;;;2.15;1.27;;;15.50;80.00;;;;;;5069950;28;20016;-69
2021/04/25 03:24:11;;;;;;;1.90;1.40;;;15.50;79.80;;;;;;5069207;28;20017;-68
2021/04/25 03:26:36;;;;;;;1.48;1.10;;;15.50;80.20;;;;;;5068716;28;20073;-69
2021/04/25 03:29:02;;;;;;;2.85;1.38;;;15.60;80.20;;;;;;5069041;28;20188;-69
2021/04/25 03:31:29;;;;;;;1.67;1.48;;;15.00;81.10;;;;;;5068772;28;20040;-70
2021/04/25 03:33:55;;;;;;;1.98;1.60;;;15.10;81.40;;;;;;5069057;28;20047;-68
2021/04/25 03:36:21;;;;;;;1.95;1.20;;;15.10;81.60;;;;;;5068883;28;20025;-68
2021/04/25 03:38:46;;;;;;;2.08;1.42;;;15.30;81.50;;;;;;5069474;28;20028;-69
2021/04/25 03:41:12;;;;;;;1.42;1.23;;;15.40;81.20;;;;;;5067773;28;20689;-68
2021/04/25 03:43:38;;;;;;;2.35;1.30;;;15.40;81.40;;;;;;5068517;28;20039;-68
2021/04/25 03:46:04;;;;;;;1.73;1.35;;;15.50;80.60;;;;;;5068618;28;20024;-69
2021/04/25 03:48:29;;;;;;;1.50;1.15;;;15.60;80.20;;;;;;5068570;28;20029;-69
2021/04/25 03:50:55;;;;;;;1.52;1.13;;;15.80;80.30;;;;;;5068805;28;20518;-69
2021/04/25 03:53:21;;;;;;;1.85;1.25;;;15.80;80.30;;;;;;5068590;28;20051;-69
2021/04/25 03:55:46;;;;;;;1.38;1.27;;;15.20;81.30;;;;;;5069100;28;20028;-68
2021/04/25 03:58:12;;;;;;;1.92;1.05;;;15.50;81.40;;;;;;5068332;28;20037;-68
2021/04/25 04:00:38;;;;;;;1.35;1.17;;;15.50;80.90;;;;;;5068174;28;20060;-69
2021/04/25 04:03:04;;;;;;;2.78;1.33;;;15.60;81.00;;;;;;5068528;28;20032;-68
2021/04/25 04:05:29;;;;;;;2.67;1.60;;;15.50;81.00;;;;;;5068144;28;20096;-68
2021/04/25 04:07:56;;;;;;;4.43;1.50;;;15.60;81.40;;;;;;5068293;28;20037;-69
2021/04/25 04:10:22;;;;;;;1.40;1.20;;;15.60;81.30;;;;;;5067276;28;20032;-69
2021/04/25 04:12:48;;;;;;;1.77;1.25;;;15.70;81.30;;;;;;5068622;28;20120;-70
2021/04/25 04:15:14;;;;;;;1.48;1.25;;;15.50;81.70;;;;;;5068103;28;20028;-69
2021/04/25 04:17:41;;;;;;;1.50;1.40;;;15.40;81.80;;;;;;5067844;28;20028;-69
2021/04/25 04:20:07;;;;;;;2.10;1.38;;;15.30;81.90;;;;;;5068148;28;20165;-70
2021/04/25 04:22:33;;;;;;;2.35;1.48;;;15.50;81.90;;;;;;5067837;28;20652;-68
2021/04/25 04:24:59;;;;;;;1.85;1.50;;;15.40;81.90;;;;;;5067714;28;20107;-69
2021/04/25 04:27:25;;;;;;;1.45;1.30;;;15.00;83.10;;;;;;5067624;28;20486;-68
2021/04/25 04:29:51;;;;;;;3.03;1.48;;;14.90;83.40;;;;;;5067809;28;20032;-68
2021/04/25 04:32:16;;;;;;;1.23;1.13;;;15.00;83.40;;;;;;5068567;28;20074;-68
2021/04/25 04:34:42;;;;;;;1.67;1.30;;;15.10;83.20;;;;;;5066577;28;20032;-68
2021/04/25 04:37:08;;;;;;;1.75;1.33;;;15.20;82.70;;;;;;5067926;28;20726;-68
2021/04/25 04:39:35;;;;;;;2.33;1.50;;;15.00;83.70;;;;;;5067150;28;20028;-69
2021/04/25 04:42:00;;;;;;;2.17;1.48;;;14.80;83.60;;;;;;5067733;28;20021;-69
2021/04/25 04:44:26;;;;;;;2.10;1.40;;;14.60;84.90;;;;;;5067445;28;20069;-69
2021/04/25 04:46:52;;;;;;;2.10;1.50;;;14.90;84.60;;;;;;5067766;28;20150;-69
2021/04/25 04:49:17;;;;;;;2.20;1.60;;;14.80;84.50;;;;;;5068098;28;20033;-69
2021/04/25 04:51:43;;;;;;;1.77;1.30;;;14.90;84.60;;;;;;5067134;28;20512;-69
2021/04/25 04:54:09;;;;;;;1.35;1.25;;;14.50;84.70;;;;;;5067168;28;20040;-69
2021/04/25 04:56:35;;;;;;;1.40;1.30;;;14.50;85.30;;;;;;5067276;28;20031;-69
2021/04/25 04:59:01;;;;;;;1.63;1.38;;;14.40;86.00;;;;;;5067247;28;20036;-68
2021/04/25 05:01:26;;;;;;;2.67;1.38;;;13.90;87.50;;;;;;5067224;28;20036;-69
2021/04/25 05:03:52;;;;;;;2.90;1.65;;;13.90;87.80;;;;;;5067466;28;20060;-69
2021/04/25 05:06:18;;;;;;;1.55;1.38;;;13.80;88.10;;;;;;5068120;28;20463;-69
2021/04/25 05:08:43;;;;;;;1.30;1.20;;;14.10;87.10;;;;;;5066144;28;20677;-70
2021/04/25 05:11:09;;;;;;;1.98;1.40;;;14.40;86.20;;;;;;5067094;28;20032;-68
2021/04/25 05:13:35;;;;;;;1.65;1.52;;;14.50;86.20;;;;;;5067097;28;20035;-69
2021/04/25 05:16:00;;;;;;;2.20;1.30;;;14.50;85.80;;;;;;5066988;28;20024;-68
2021/04/25 05:18:26;;;;;;;2.60;1.60;;;14.80;86.10;;;;;;5066891;28;20568;-69
2021/04/25 05:20:52;;;;;;;1.42;1.33;;;14.80;86.20;;;;;;5067112;28;20051;-69
2021/04/25 05:23:18;;;;;;;1.30;1.20;;;15.00;86.40;;;;;;5067580;28;20028;-69
2021/04/25 05:25:43;;;;;;;1.20;1.08;;;15.10;86.10;;;;;;5066590;28;20020;-68
2021/04/25 05:28:09;;;;;;;1.55;1.35;;;15.20;85.40;;;;;;5067120;28;20037;-69
2021/04/25 05:30:35;;;;;;;1.30;1.20;;;15.30;84.50;;;;;;5066511;28;20046;-69
2021/04/25 05:33:01;;;;;;;3.40;1.80;;;15.20;84.50;;;;;;5067005;28;20040;-67
2021/04/25 05:35:27;;;;;;;1.98;1.27;;;15.20;85.10;;;;;;5066979;28;20467;-68
2021/04/25 05:37:53;;;;;;;1.60;1.30;;;15.20;85.30;;;;;;5066431;28;20037;-68
2021/04/25 05:40:19;;;;;;;1.50;1.40;;;15.10;85.80;;;;;;5067496;28;20028;-70
2021/04/25 05:42:44;;;;;;;2.17;1.35;;;14.90;85.80;;;;;;5066998;28;20024;-70
2021/04/25 05:45:20;;;;;;;1.92;1.25;;;14.50;86.80;;;;;;5066795;28;20418;-70
2021/04/25 05:47:55;;;;;;;2.35;1.85;;;14.40;86.80;;;;;;5067254;28;20467;-69
2021/04/25 05:50:23;;;;;;;2.38;1.58;;;14.30;87.40;;;;;;5066257;28;20031;-69
2021/04/25 05:52:49;;;;;;;3.63;1.60;;;14.30;87.20;;;;;;5054669;28;20107;-69
2021/04/25 05:55:15;;;;;;;1.50;1.40;;;14.40;87.60;;;;;;5061699;28;20028;-69
2021/04/25 05:57:41;;;;;;;1.50;1.40;;;14.60;87.50;;;;;;5066176;28;20115;-68
2021/04/25 06:00:09;;;;;;;2.33;1.40;;;14.50;87.10;;;;;;5066619;28;20108;-69
2021/04/25 06:02:35;;;;;;;2.08;1.40;;;14.60;87.20;;;;;;5066052;28;20021;-67
2021/04/25 06:05:02;;;;;;;2.53;1.65;;;14.70;87.20;;;;;;5069339;28;20472;-67
2021/04/25 06:07:27;;;;;;;1.67;1.33;;;15.00;86.40;;;;;;5070551;28;20016;-68
2021/04/25 06:09:53;;;;;;;2.08;1.33;;;15.00;86.20;;;;;;5069923;28;20035;-69
2021/04/25 06:12:19;;;;;;;2.08;1.67;;;15.20;86.30;;;;;;5070975;28;20036;-68
2021/04/25 06:14:46;;;;;;;2.03;1.52;;;15.10;86.20;;;;;;5071260;28;20033;-67
2021/04/25 06:17:11;;;;;;;2.03;1.60;;;15.10;86.30;;;;;;5070577;28;20418;-67
2021/04/25 06:19:37;;;;;;;1.50;1.20;;;15.20;86.50;;;;;;5070255;28;20028;-68
2021/04/25 06:22:09;;;;;;;2.65;1.40;;;15.30;86.40;;;;;;5070280;28;20133;-67
2021/04/25 06:24:36;;;;;;;1.50;1.40;;;15.30;85.80;;;;;;5069648;28;20104;-68
2021/04/25 06:27:03;;;;;;;1.95;1.52;;;15.40;86.10;;;;;;5070384;28;20021;-67
2021/04/25 06:29:29;;;;;;;2.35;2.05;;;15.40;86.00;;;;;;5070109;28;20052;-67
2021/04/25 06:31:56;;;;;;;2.50;2.10;;;15.30;86.60;;;;;;5069033;28;20380;-68
2021/04/25 06:34:22;;;;;;;1.90;1.70;;;15.40;86.20;;;;;;5079599;28;20070;-68
2021/04/25 06:36:47;;;;;;;2.40;1.70;;;15.40;86.50;;;;;;5068850;28;20028;-68
2021/04/25 06:39:13;;;;;;;2.35;2.08;;;15.40;87.00;;;;;;5069795;28;20036;-67
2021/04/25 06:41:39;;;;;;;2.90;1.75;;;15.50;86.60;;;;;;5069721;28;20076;-68
2021/04/25 06:44:05;;;;;;;2.15;1.60;;;15.70;86.70;;;;;;5069945;28;20522;-69
2021/04/25 06:46:31;;;;;;;2.40;1.92;;;15.70;86.20;;;;;;5069479;28;20088;-68
2021/04/25 06:48:57;;;;;;;1.73;1.63;;;15.80;86.20;;;;;;5069690;28;20356;-68
2021/04/25 06:51:23;;;;;;;1.65;1.55;;;15.90;86.80;;;;;;5069119;28;20042;-68
2021/04/25 06:53:49;;;;;;;2.55;1.60;;;16.00;86.20;;;;;;5070082;28;20115;-68
2021/04/25 06:56:15;;;;;;;1.80;1.48;;;16.20;86.10;;;;;;5070292;28;20028;-67
2021/04/25 06:58:40;;;;;;;2.25;1.20;;;16.20;86.40;;;;;;5069464;28;20402;-67
2021/04/25 07:01:08;;;;;;;1.27;1.08;;;16.20;85.80;;;;;;5068898;28;20082;-66
2021/04/25 07:03:34;;;;;;;1.42;1.33;;;16.20;85.60;;;;;;5068379;28;20502;-67
2021/04/25 07:06:01;;;;;;;0.90;0.90;;;16.10;85.80;;;;;;5068103;28;20029;-67
2021/04/25 07:08:27;;;;;;;1.23;1.13;;;16.20;85.40;;;;;;5067070;28;20039;-67
2021/04/25 07:10:52;;;;;;;1.20;1.05;;;16.20;85.30;;;;;;5067287;28;20036;-67
2021/04/25 07:13:21;;;;;;;1.20;0.95;;;16.40;85.50;;;;;;5068208;28;20040;-67
2021/04/25 07:15:46;;;;;;;1.50;1.10;;;16.40;84.80;;;;;;5068217;28;20048;-67
2021/04/25 07:18:13;;;;;;;1.02;0.85;;;16.50;85.10;;;;;;5064883;28;20064;-67
2021/04/25 07:20:39;;;;;;;1.88;1.38;;;16.60;84.90;;;;;;5058348;28;20094;-67
2021/04/25 07:23:05;;;;;;;1.10;1.00;;;16.70;85.50;;;;;;5067155;28;20056;-67
2021/04/25 07:25:32;;;;;;;0.80;0.80;;;16.80;85.60;;;;;;5080860;28;20424;-67
2021/04/25 07:27:59;;;;;;;1.50;1.23;;;16.80;85.50;;;;;;5074571;28;20025;-67
2021/04/25 07:30:25;;;;;;;1.05;0.95;;;16.80;85.90;;;;;;5048901;28;20061;-67
2021/04/25 07:32:53;;;;;;;1.08;0.93;;;16.80;86.40;;;;;;5066653;28;20075;-67
2021/04/25 07:35:19;;;;;;;1.20;0.82;;;16.90;85.90;;;;;;5069296;28;20056;-67
2021/04/25 07:37:47;;;;;;;1.38;0.77;;;17.10;85.50;;;;;;5068292;28;20063;-67
2021/04/25 07:40:13;;;;;;;1.33;0.93;;;17.00;86.00;;;;;;5064985;28;20054;-67
2021/04/25 07:42:39;;;;;;;0.98;0.88;;;17.20;85.40;;;;;;5068237;28;20063;-67
2021/04/25 07:45:08;;;;;;;0.90;0.70;;;17.10;85.40;;;;;;5068280;28;20467;-66
2021/04/25 07:47:34;;;;;;;0.70;0.70;;;17.00;84.90;;;;;;5066519;28;20025;-67
2021/04/25 07:50:00;;;;;;;1.33;0.80;;;17.00;84.30;;;;;;5065794;28;20049;-67
2021/04/25 07:52:25;;;;;;;0.90;0.80;;;17.00;83.40;;;;;;5069039;28;20089;-66
2021/04/25 07:54:52;;;;;;;1.27;0.90;;;17.10;83.00;;;;;;5067869;28;20048;-67
2021/04/25 07:57:18;;;;;;;1.08;0.82;;;17.20;84.70;;;;;;5079185;28;20032;-65
2021/04/25 07:59:43;;;;;;;1.67;0.63;;;17.40;83.80;;;;;;5067492;28;20029;-66
2021/04/25 08:02:09;;;;;;;0.80;0.60;;;17.40;83.00;;;;;;5048116;28;20473;-66
2021/04/25 08:04:36;;;;;;;0.55;0.52;;;17.40;81.60;;;;;;5068026;28;20048;-66
2021/04/25 08:07:01;;;;;;;0.50;0.50;;;17.50;83.10;;;;;;5068414;28;20037;-67
2021/04/25 08:09:27;;;;;;;0.52;0.52;;;17.60;83.40;;;;;;5067236;28;20032;-67
2021/04/25 08:11:55;;;;;;;0.52;0.43;;;17.60;82.90;;;;;;5067800;28;20051;-67
2021/04/25 08:14:21;;;;;;;0.60;0.60;;;17.70;82.00;;;;;;5067431;28;20020;-66
2021/04/25 08:16:47;;;;;;;0.50;0.50;;;17.60;80.70;;;;;;5067228;28;20036;-67
2021/04/25 08:19:13;;;;;;;0.75;0.68;;;17.60;81.70;;;;;;5066673;28;20441;-67
2021/04/25 08:21:38;;;;;;;0.50;0.50;;;17.60;83.40;;;;;;5067754;28;20016;-68
2021/04/25 08:24:04;;;;;;;1.25;0.93;;;17.70;81.40;;;;;;5067997;28;20024;-67
2021/04/25 08:26:30;;;;;;;0.65;0.65;;;17.70;84.00;;;;;;5067368;28;20112;-67
2021/04/25 08:28:57;;;;;;;0.52;0.52;;;17.90;83.40;;;;;;5064522;28;20099;-67
2021/04/25 08:31:23;;;;;;;0.60;0.60;;;18.00;81.90;;;;;;5066594;28;20427;-66
2021/04/25 08:33:48;;;;;;;0.70;0.70;;;18.00;81.10;;;;;;5068213;28;20031;-66
2021/04/25 08:36:17;;;;;;;0.70;0.70;;;18.00;81.20;;;;;;5067469;28;20039;-67
2021/04/25 08:38:45;;;;;;;0.50;0.50;;;17.70;80.70;;;;;;5064170;28;20410;-67
2021/04/25 08:41:14;;;;;;;0.63;0.50;;;17.80;80.80;;;;;;5066280;28;20457;-67
2021/04/25 08:43:43;;;;;;;0.65;0.60;;;18.00;81.40;;;;;;5066887;28;20532;-67
2021/04/25 08:46:09;;;;;;;0.40;0.40;;;18.00;81.80;;;;;;5066118;28;20394;-67
2021/04/25 08:48:35;;;;;;;0.60;0.60;;;18.10;82.60;;;;;;5066953;28;20028;-67
2021/04/25 08:51:03;;;;;;;0.73;0.60;;;18.10;81.70;;;;;;5067341;28;20029;-68
2021/04/25 08:53:28;;;;;;;0.50;0.50;;;18.30;83.00;;;;;;5066850;28;20025;-67
2021/04/25 08:55:54;;;;;;;0.60;0.60;;;18.20;81.10;;;;;;5067491;28;20039;-67
2021/04/25 08:58:21;;;;;;;0.60;0.60;;;18.20;81.90;;;;;;5066791;28;20085;-67
2021/04/25 09:00:50;;;;;;;0.80;0.47;;;18.20;81.60;;;;;;5067343;28;20029;-67
2021/04/25 09:03:16;;;;;;;1.05;0.50;;;18.50;81.40;;;;;;5067929;28;20049;-67
2021/04/25 09:05:43;;;;;;;0.63;0.63;;;18.50;81.10;;;;;;5065011;28;20409;-67
2021/04/25 09:08:10;;;;;;;0.50;0.50;;;18.50;80.90;;;;;;5067140;28;20036;-68
2021/04/25 09:10:42;;;;;;;0.57;0.57;;;18.60;84.20;;;;;;5066724;28;20044;-67
2021/04/25 09:13:16;;;;;;;0.60;0.50;;;18.70;82.20;;;;;;5066980;28;20017;-67
2021/04/25 09:15:42;;;;;;;0.47;0.47;;;18.90;83.30;;;;;;5066821;28;20055;-69
2021/04/25 09:18:08;;;;;;;0.60;0.60;;;19.00;84.00;;;;;;5067195;28;20093;-68
2021/04/25 09:20:50;;;;;;;0.40;0.40;;;19.00;82.40;;;;;;5066470;28;20495;-68
2021/04/25 09:23:22;;;;;;;0.43;0.43;;;19.10;82.20;;;;;;5066423;28;20049;-68
2021/04/25 09:25:54;;;;;;;1.15;0.60;;;19.20;82.60;;;;;;5047478;28;20025;-67
2021/04/25 09:28:21;;;;;;;0.52;0.52;;;19.00;80.50;;;;;;5046622;28;20565;-67
2021/04/25 09:31:01;;;;;;;0.63;0.63;;;19.00;82.70;;;;;;5047386;28;20507;-66
2021/04/25 09:33:47;;;;;;;0.60;0.60;;;19.30;81.90;;;;;;5060592;28;20032;-67
2021/04/25 09:36:14;;;;;;;0.68;0.68;;;19.50;81.30;;;;;;5066673;28;20032;-67
2021/04/25 09:38:40;;;;;;;0.73;0.73;;;19.20;80.60;;;;;;5065420;28;20020;-67
2021/04/25 09:41:05;;;;;;;0.50;0.50;;;19.40;81.30;;;;;;5066702;28;20609;-67
2021/04/25 09:43:39;;;;;;;0.80;0.70;;;19.30;79.60;;;;;;5049924;28;20032;-67
2021/04/25 09:46:05;;;;;;;0.80;0.80;;;19.40;79.30;;;;;;5048994;28;20119;-67
2021/04/25 09:48:33;;;;;;;0.82;0.70;;;19.30;79.80;;;;;;5062386;28;20144;-67
2021/04/25 09:51:23;;;;;;;0.70;0.70;;;19.30;79.30;;;;;;5052246;28;20066;-67
2021/04/25 09:53:49;;;;;;;1.20;0.85;;;19.60;77.80;;;;;;5065224;28;20095;-68
2021/04/25 09:56:22;;;;;;;0.65;0.63;;;19.90;75.50;;;;;;5066763;28;20099;-68
2021/04/25 09:58:57;;;;;;;0.75;0.50;;;19.70;75.40;;;;;;5069879;28;20051;-68
2021/04/25 10:01:25;;;;;;;0.60;0.60;;;19.70;77.00;;;;;;5066306;28;20155;-68
2021/04/25 10:03:51;;;;;;;0.90;0.70;;;19.80;74.80;;;;;;5066707;28;20101;-68
2021/04/25 10:06:19;;;;;;;1.25;0.82;;;19.90;77.30;;;;;;5067260;28;20028;-68
2021/04/25 10:08:49;;;;;;;0.70;0.60;;;20.00;78.40;;;;;;5066643;28;20503;-68
2021/04/25 10:11:15;;;;;;;1.50;1.00;;;20.20;75.70;;;;;;5066438;28;20032;-67
2021/04/25 10:13:47;;;;;;;1.25;1.00;;;19.90;74.50;;;;;;5066031;28;20448;-67
2021/04/25 10:16:20;;;;;;;1.73;1.00;;;19.90;75.10;;;;;;5066137;28;20042;-67
2021/04/25 10:18:48;;;;;;;0.90;0.73;;;20.10;75.90;;;;;;5066907;28;20117;-68
2021/04/25 10:21:14;;;;;;;1.15;0.90;;;20.20;76.40;;;;;;5065907;28;20032;-68
2021/04/25 10:23:40;;;;;;;1.17;1.05;;;20.30;77.40;;;;;;5066407;28;20033;-68
2021/04/25 10:26:15;;;;;;;0.75;0.70;;;20.60;75.50;;;;;;5065815;28;20509;-67
2021/04/25 10:28:54;;;;;;;0.60;0.60;;;20.40;73.50;;;;;;5065841;28;20039;-68
2021/04/25 10:31:27;;;;;;;0.70;0.70;;;20.30;74.70;;;;;;5066266;28;20024;-68
2021/04/25 10:34:16;;;;;;;1.30;0.70;;;20.80;76.40;;;;;;5066036;28;20510;-67
2021/04/25 10:36:45;;;;;;;2.72;1.00;;;20.80;75.40;;;;;;5065973;28;20107;-67
2021/04/25 10:39:49;;;;;;;1.25;1.08;;;21.20;74.70;;;;;;5066089;28;20021;-67
2021/04/25 10:42:21;;;;;;;0.77;0.70;;;21.30;74.60;;;;;;5066221;28;20108;-67
2021/04/25 10:45:03;;;;;;;1.23;1.10;;;21.40;75.30;;;;;;5066419;28;20406;-68
2021/04/25 10:47:34;;;;;;;1.60;0.90;;;21.50;75.50;;;;;;5065813;28;20033;-66
2021/04/25 10:50:09;;;;;;;1.75;1.10;;;21.40;72.90;;;;;;5066315;28;20035;-66
2021/04/25 10:52:36;;;;;;;0.90;0.90;;;21.10;72.90;;;;;;5069318;28;20051;-67
2021/04/25 10:55:14;;;;;;;0.70;0.70;;;21.70;76.60;;;;;;5069196;28;20039;-66
2021/04/25 10:58:03;;;;;;;1.83;1.23;;;21.60;72.50;;;;;;5069119;28;20084;-65
2021/04/25 11:00:38;;;;;;;1.08;0.80;;;21.50;73.60;;;;;;5069217;28;20530;-66
2021/04/25 11:03:37;;;;;;;1.73;1.23;;;21.80;74.80;;;;;;5069388;28;20043;-66
2021/04/25 11:06:03;;;;;;;1.00;0.80;;;21.80;72.70;;;;;;5059525;28;20051;-67
2021/04/25 11:08:29;;;;;;;0.90;0.70;;;21.90;72.70;;;;;;5068858;28;20483;-66
2021/04/25 11:10:57;;;;;;;1.05;0.85;;;21.90;72.40;;;;;;5069248;28;20047;-67
2021/04/25 11:13:45;;;;;;;1.27;1.17;;;22.10;74.20;;;;;;5069068;28;20047;-67
2021/04/25 11:16:16;;;;;;;1.75;1.20;;;22.10;72.60;;;;;;5069350;28;20154;-66
2021/04/25 11:18:52;;;;;;;6.72;4.18;;;22.00;71.80;;;;;;5068743;28;20163;-66
2021/04/25 11:21:30;;;;;;;4.85;3.13;;;22.20;71.30;;;;;;5069501;28;20077;-67
2021/04/25 11:23:58;;;;;;;3.25;2.40;;;22.10;71.30;;;;;;5068992;28;20031;-66
2021/04/25 11:26:36;;;;;;;2.97;2.40;;;22.30;71.10;;;;;;5068527;28;20017;-67
2021/04/25 11:29:08;;;;;;;2.10;1.80;;;22.50;71.50;;;;;;5068666;28;20506;-67
2021/04/25 11:31:46;;;;;;;2.20;1.55;;;22.70;69.80;;;;;;5068459;28;20025;-67
2021/04/25 11:34:30;;;;;;;1.27;1.15;;;22.70;71.00;;;;;;5068506;28;20036;-67
2021/04/25 11:37:04;;;;;;;1.10;1.00;;;23.10;70.10;;;;;;5069020;28;20059;-66
2021/04/25 11:39:44;;;;;;;1.10;1.00;;;23.10;69.20;;;;;;5068568;28;20549;-66
2021/04/25 11:42:23;;;;;;;1.00;0.90;;;23.20;68.40;;;;;;5068635;28;20033;-66
2021/04/25 11:44:49;;;;;;;0.85;0.80;;;23.20;70.60;;;;;;5069437;28;20027;-66
2021/04/25 11:47:16;;;;;;;0.70;0.70;;;23.00;68.60;;;;;;5068657;28;20028;-66
2021/04/25 11:49:48;;;;;;;0.80;0.80;;;22.70;67.80;;;;;;5067937;28;20028;-66
2021/04/25 11:52:21;;;;;;;0.85;0.77;;;22.60;69.00;;;;;;5068501;28;20119;-67
2021/04/25 11:54:59;;;;;;;0.60;0.60;;;22.70;68.40;;;;;;5067071;28;20021;-66
2021/04/25 11:57:27;;;;;;;0.75;0.65;;;22.80;68.70;;;;;;5058034;28;20025;-66
2021/04/25 12:00:05;;;;;;;0.77;0.77;;;23.20;71.40;;;;;;5068472;28;20052;-66
2021/04/25 12:02:36;;;;;;;0.60;0.57;;;23.50;68.50;;;;;;5066457;28;20093;-66
2021/04/25 12:05:33;;;;;;;1.33;0.98;;;23.50;67.80;;;;;;5068423;28;20048;-66
2021/04/25 12:08:04;;;;;;;0.80;0.70;;;23.50;67.60;;;;;;5067003;28;20047;-67
2021/04/25 12:10:34;;;;;;;0.93;0.85;;;23.60;68.20;;;;;;5066451;28;20025;-65
2021/04/25 12:13:23;;;;;;;0.95;0.90;;;23.70;67.40;;;;;;5067955;28;20387;-66
2021/04/25 12:15:59;;;;;;;0.75;0.70;;;23.50;65.90;;;;;;5068086;28;20482;-65
2021/04/25 12:18:36;;;;;;;1.48;1.10;;;23.60;67.20;;;;;;5067278;28;20115;-64
2021/04/25 12:21:05;;;;;;;1.80;1.25;;;23.60;65.30;;;;;;5067762;28;20386;-65
2021/04/25 12:23:42;;;;;;;0.95;0.95;;;23.40;66.80;;;;;;5065792;28;20390;-67
2021/04/25 12:26:09;;;;;;;0.70;0.70;;;23.60;67.10;;;;;;5059464;28;20024;-65
2021/04/25 12:28:42;;;;;;;1.88;1.00;;;23.40;65.00;;;;;;5066850;28;20087;-65
2021/04/25 12:31:10;;;;;;;0.93;0.82;;;23.40;65.30;;;;;;5067372;28;20016;-66
2021/04/25 12:33:48;;;;;;;0.90;0.90;;;23.60;65.60;;;;;;5067360;28;20111;-65
2021/04/25 12:36:16;;;;;;;0.60;0.60;;;23.90;65.40;;;;;;5067818;28;20529;-65
2021/04/25 12:38:43;;;;;;;0.70;0.70;;;24.00;64.30;;;;;;5067351;28;20028;-65
2021/04/25 12:41:10;;;;;;;0.70;0.70;;;24.00;63.50;;;;;;5067568;28;20031;-65
2021/04/25 12:43:50;;;;;;;0.77;0.77;;;24.00;63.20;;;;;;5066827;28;20415;-65
2021/04/25 12:46:25;;;;;;;0.73;0.70;;;23.90;62.80;;;;;;5067837;28;20016;-65
2021/04/25 12:48:52;;;;;;;0.60;0.55;;;23.90;64.00;;;;;;5067328;28;20033;-65
2021/04/25 12:51:25;;;;;;;0.70;0.70;;;23.80;63.90;;;;;;5067782;28;20415;-64
2021/04/25 12:53:51;;;;;;;1.52;0.80;;;23.90;64.00;;;;;;5066997;28;20032;-65